• Join FlightAware (Why Join?)
  • Login
  • US Flag 
10:03PM EDT


 

Airport Tracker/Info


-or-


 

Live Flight TrackerFlight Track Log ✈ RPA3321 ✈ 17-Jun-2013 ✈ KALB - KDCA

Flight Track Log - Related Links

Times and Time Zones

All times are in EDT time to prevent confusion due to time zone crossing. See the RPA3321 flight status page for this flight to view local times or setup timezone preferences in your user account.

Time Position Orientation Groundspeed Altitude Reporting Facility
EDT Latitude Longitude Course Direction KTS MPH feet Rate Location/Type
05:35AM 42.7714 -73.8092 119° Southeast 157 181 1,300  Level Boston Center
05:36AM 42.8169 -73.8525 325° Northwest 210 242 3,300 2,340 Climbing Boston Center
05:37AM 42.5153 -74.0095 171° South  Level Estimated
05:37AM 42.8717 -73.9531 307° West 254 292 7,300  Level Boston Center
05:38AM 42.4373 -74.0783 180° South  Level Estimated
05:38AM 42.9000 -74.0272 298° West 247 284 10,000  Level Boston Center
05:39AM 42.3593 -74.1470 172° South  Level Estimated
05:39AM 42.8900 -74.1433 263° West 259 298 11,500  Level Boston Center
05:40AM 42.3139 -74.0371 119° Southeast  Level FlightAware Approximate
05:40AM 42.8428 -74.2269 232° Southwest 293 337 13,400  Level Boston Center
05:41AM 42.7558 -74.1961 165° South 292 336 15,600 2,220 Climbing Boston Center
05:42AM 42.6381 -74.1222 155° Southeast 357 411 17,900 1,920 Climbing Boston Center
05:43AM 42.5492 -74.0719 157° South 379 436 19,500 1,380 Climbing Boston Center
05:44AM 42.4478 -74.0128 157° South 389 448 20,700 1,200 Climbing Boston Center
05:45AM 42.3425 -73.9486 156° South 399 459 22,000 1,200 Climbing Boston Center
05:46AM 42.2350 -73.8786 154° Southeast 417 480 23,100 1,200 Climbing Boston Center
05:47AM 42.1233 -73.8144 157° South 428 493 24,400 1,140 Climbing Boston Center
05:48AM 42.0086 -73.8203 182° South 418 481 25,400 780 Climbing Boston Center
05:49AM 41.9036 -73.8739 201° Southwest 395 455 26,000 300 Climbing Boston Center
05:50AM 41.7822 -73.9156 194° South 402 463 26,000  Level Boston Center
05:52AM 41.6192 -74.0067 203° Southwest 411 473 26,000  Level New York Center
05:53AM 41.5136 -74.0569 200° South 411 473 26,000  Level New York Center
05:54AM 41.4058 -74.1125 201° Southwest 416 479 26,000  Level New York Center
05:55AM 41.2939 -74.1647 199° South 416 479 26,000  Level New York Center
05:56AM 41.1822 -74.2117 198° South 416 479 26,000  Level New York Center
05:57AM 41.0725 -74.2636 200° South 421 484 26,000  Level New York Center
05:58AM 40.9667 -74.3186 201° Southwest 421 484 26,000  Level New York Center
05:59AM 40.8569 -74.3650 198° South 416 479 26,000  Level New York Center
06:00AM 40.7608 -74.4422 211° Southwest 409 471 26,000  Level New York Center
06:01AM 40.6886 -74.5533 229° Southwest 404 465 26,000  Level New York Center
06:02AM 40.6161 -74.6642 229° Southwest 399 459 26,000  Level New York Center
06:03AM 40.5394 -74.7772 228° Southwest 411 473 26,000  Level New York Center
06:04AM 40.4650 -74.8819 227° Southwest 411 473 26,000  Level New York Center
06:05AM 40.3944 -74.9894 229° Southwest 406 467 26,000  Level New York Center
06:06AM 40.3197 -75.0992 228° Southwest 400 460 26,000 -540 Level New York Center
06:07AM 40.2514 -75.1956 227° Southwest 400 460 25,000 -1,620 Descending New York Center
06:08AM 40.1847 -75.3081 232° Southwest 400 460 22,700 -1,500 Descending New York Center
06:09AM 40.1139 -75.4147 229° Southwest 400 460 22,000 -360 Descending New York Center
06:10AM 40.0428 -75.5239 230° Southwest 400 460 22,000  Level New York Center
06:11AM 39.9739 -75.6303 230° Southwest 395 455 22,000 -1,320 Level New York Center
06:12AM 39.9025 -75.7419 230° Southwest 395 455 19,400 -2,580 Descending New York Center
06:13AM 39.8336 -75.8397 227° Southwest 385 443 16,900 -2,280 Descending New York Center
06:15AM 39.6833 -76.0667 229° Southwest 339 390 12,200 -1,560 Descending Potomac TRACON
06:16AM 39.6333 -76.1500 232° Southwest 337 388 12,000 -120 Descending Potomac TRACON
06:17AM 39.5667 -76.2333 224° Southwest 336 387 12,000  Level Potomac TRACON
06:18AM 39.5167 -76.3333 237° Southwest 317 365 12,000  Level Potomac TRACON
06:19AM 39.4667 -76.4000 226° Southwest 277 319 12,000  Level Potomac TRACON
06:20AM 39.4000 -76.4667 218° Southwest 282 325 12,000 -60 Level Potomac TRACON
06:21AM 39.3500 -76.5167 218° Southwest 284 327 11,900 -480 Descending Potomac TRACON
06:22AM 39.2833 -76.5667 210° Southwest 280 322 11,200 -840 Descending Potomac TRACON
06:23AM 39.2167 -76.6333 218° Southwest 278 320 10,300 -660 Descending Potomac TRACON
06:24AM 39.1667 -76.6833 218° Southwest 281 323 10,000 -180 Descending Potomac TRACON
06:25AM 39.1000 -76.7500 218° Southwest 278 320 10,000 -540 Level Potomac TRACON
06:26AM 39.0500 -76.8167 226° Southwest 275 316 9,000 -1,500 Descending Potomac TRACON
06:27AM 38.9833 -76.8833 218° Southwest 278 320 7,100 -1,620 Descending Potomac TRACON
06:28AM 38.9333 -76.9333 218° Southwest 272 313 6,000 -660 Descending Potomac TRACON
06:29AM 38.8833 -76.9500 195° South 244 281 6,000 -120 Level Potomac TRACON
06:30AM 38.8167 -76.9500 180° South 244 281 5,800 -900 Descending Potomac TRACON
06:31AM 38.7500 -76.9333 169° South 235 270 4,200 -960 Descending Potomac TRACON
06:32AM 38.6833 -76.9500 191° South 239 275 3,900 -840 Descending Potomac TRACON
06:33AM 38.7000 -77.0000 293° West 197 227 2,700 -1,140 Descending Potomac TRACON
06:33AM 38.7500 -77.0333 333° Northwest 173 199 1,800 -900 Descending Potomac TRACON
06:34AM 38.8000 -77.0333 360° North 175 201 1,000 -840 Descending Potomac TRACON